Azwell, Washington
Current Conditions -  °F | °C
As of 8:53 PM on Friday 19 Dec 2014 (Local Time) from KOMK Reporting Station
Overcast Overcast  
Wind Chill: 36°   Ceiling: 1700
Heat Index: 36°   Visibility: 10mi
Dew Point: 34°   Wind: 3mph
Humidity: 93%   Direction: 120°ESE
Pressure: 30"   Gusts: NA
Location:  48.0966°N, 119.955°W
Report Text: KOMK 200453Z AUTO 12003KT 10SM BKN017 OVC027 02/01 A3000 RMK AO2 SLP170 T00220011
Loading
Personal Weather Stations






























Interactive Weather Map New forecast layout! Learn more

10-Day Weather Forecast

Advertisements
Track Severe Weather on mobile